American Freedom — KAFK — position and weather

sailwx.info

Track history (hours):
 
Tides and Currents Weather Stations Pressure Air Temp Water Temp Dewpoint Dewpoint Depression Visibility Wind Speed Wind Dir Waves Ship Positions

American Freedom

Owner: Crowley Petroleum Services, Jacksonville, FL. More information available from US FCC via Universal Licensing System and Coast Guard Vessel Documentation Center.

Last reported at 2017-Dec-12 07:04 UTC. Time now 2017-Dec-16 12:57 UTC.
Position N 29°12' W 094°40'.

Length 183 m; draft 8.6 m.

Type: Tanker. MMSI: 369042000.

Date/timePositionNaut miles runAvg speedWind from/ knotsBaromVisibWave heightAir tempDewpointWater temp
2017-Dec-12 07:04N 29°12' W 094°40'0 0.1
2017-Dec-12 06:58N 29°12' W 094°40'0 0.0
2017-Dec-12 06:28N 29°12' W 094°40'0 0.0
2017-Dec-12 05:58N 29°12' W 094°40'0 0.0
2017-Dec-12 05:01N 29°12' W 094°40'0 0.0
2017-Dec-12 01:49N 29°12' W 094°40'0 0.0
2017-Dec-12 01:22N 29°12' W 094°40'0 0.0
2017-Dec-12 00:58N 29°12' W 094°40'0 0.0
2017-Dec-12 00:28N 29°12' W 094°40'0 0.0
2017-Dec-11 23:58N 29°12' W 094°40'0 0.0
2017-Dec-11 10:43N 29°12' W 094°40'64112.6
2017-Dec-09 07:58N 27°37' W 082°40'5 9.6
2017-Dec-09 07:28N 27°39' W 082°35'1 2.7
2017-Dec-09 07:00N 27°38' W 082°34'0 0.0
2017-Dec-09 06:30N 27°38' W 082°34'0 0.0
2017-Dec-09 06:00N 27°38' W 082°34'0 0.0
2017-Dec-08 14:56N 27°38' W 082°34'2 2.8
2017-Dec-08 14:16N 27°39' W 082°35'2 5.5
2017-Dec-08 13:56N 27°41' W 082°35'410.2
2017-Dec-08 13:30N 27°44' W 082°32'611.2
2017-Dec-08 13:00N 27°48' W 082°28'611.7
2017-Dec-08 12:30N 27°54' W 082°26'1 1.7
2017-Dec-08 11:58N 27°55' W 082°27'0 0.0
2017-Dec-08 11:28N 27°55' W 082°27'0 0.0
2017-Dec-08 10:58N 27°55' W 082°27'0 0.0
2017-Dec-08 10:28N 27°55' W 082°27'0 0.0
2017-Dec-08 09:58N 27°55' W 082°27'0 0.0
2017-Dec-08 09:28N 27°55' W 082°27'0 0.0
2017-Dec-08 08:58N 27°55' W 082°27'0 0.0
2017-Dec-08 08:28N 27°55' W 082°27'0 0.0
2017-Dec-08 07:58N 27°55' W 082°27'0 0.0
2017-Dec-08 07:28N 27°55' W 082°27'0 0.0
2017-Dec-08 06:58N 27°55' W 082°27'0 0.0
2017-Dec-08 06:28N 27°55' W 082°27'0 0.0
2017-Dec-08 05:58N 27°55' W 082°27'0 0.0
2017-Dec-08 05:28N 27°55' W 082°27'0 0.0
2017-Dec-08 04:58N 27°55' W 082°27'0 0.0
2017-Dec-08 04:28N 27°55' W 082°27'0 0.0
2017-Dec-08 03:58N 27°55' W 082°27'0 0.0
2017-Dec-08 03:28N 27°55' W 082°27'0 0.0
2017-Dec-08 02:58N 27°55' W 082°27'0 0.0
2017-Dec-08 02:28N 27°55' W 082°27'0 0.0
2017-Dec-08 01:58N 27°55' W 082°27'0 0.0
2017-Dec-08 01:28N 27°55' W 082°27'0 0.0
2017-Dec-08 00:58N 27°55' W 082°27'0 0.0
2017-Dec-08 00:28N 27°55' W 082°27'0 0.0
2017-Dec-07 23:58N 27°55' W 082°27'0 0.0
2017-Dec-07 23:28N 27°55' W 082°27'0 0.0
2017-Dec-07 22:58N 27°55' W 082°27'0 0.1
2017-Dec-07 22:31N 27°55' W 082°27'2 4.9
2017-Dec-07 22:01N 27°53' W 082°26'611.0
2017-Dec-07 21:30N 27°48' W 082°29'613.0
2017-Dec-07 21:00N 27°42' W 082°33'714.0
2017-Dec-07 20:30N 27°37' W 082°39'  
2017-Dec-03 07:45N 25°18' W 080°03'311.9
2017-Dec-03 07:30N 25°21' W 080°02'611.6
2017-Dec-03 07:00N 25°27' W 080°01'611.7
2017-Dec-03 06:30N 25°33' W 080°00'611.5
2017-Dec-03 06:00N 25°38' W 079°60'611.9
2017-Dec-03 05:30N 25°44' W 079°60'612.0
2017-Dec-03 05:00N 25°50' W 079°60'612.1
2017-Dec-03 04:30N 25°56' W 079°60'611.9
2017-Dec-03 04:00N 26°02' W 080°01'611.6
2017-Dec-03 03:30N 26°06' W 080°06'1 2.0
2017-Dec-03 03:00N 26°05' W 080°07'0 0.0
2017-Dec-03 02:24N 26°05' W 080°07'0 0.0
2017-Dec-03 01:54N 26°05' W 080°07'0 0.0
2017-Dec-03 01:24N 26°05' W 080°07'0 0.0
2017-Dec-03 00:54N 26°05' W 080°07'0 0.0
2017-Dec-03 00:27N 26°05' W 080°07'0 0.0
2017-Dec-02 23:57N 26°05' W 080°07'0 0.0
2017-Dec-02 23:27N 26°05' W 080°07'0 0.0
2017-Dec-02 22:57N 26°05' W 080°07'0 0.0
2017-Dec-02 22:27N 26°05' W 080°07'0 0.0
2017-Dec-02 22:00N 26°05' W 080°07'0 0.0
2017-Dec-02 21:30N 26°05' W 080°07'0 0.0
2017-Dec-02 21:00N 26°05' W 080°07'0 0.0
2017-Dec-02 20:30N 26°05' W 080°07'0 0.0
2017-Dec-02 19:57N 26°05' W 080°07'0 0.0
2017-Dec-02 19:30N 26°05' W 080°07'0 0.0
2017-Dec-02 19:00N 26°05' W 080°07'0 0.0
2017-Dec-02 18:30N 26°05' W 080°07'0 0.0
2017-Dec-02 18:00N 26°05' W 080°07'0 0.0
2017-Dec-02 17:30N 26°05' W 080°07'0 0.0
2017-Dec-02 17:00N 26°05' W 080°07'0 0.0
2017-Dec-02 16:21N 26°05' W 080°07'0 0.0
2017-Dec-02 16:00N 26°05' W 080°07'0 0.0
2017-Dec-02 15:30N 26°05' W 080°07'0 0.2
2017-Dec-02 15:01N 26°05' W 080°07'4 7.3
2017-Dec-02 14:30N 26°06' W 080°03'3 5.7
2017-Dec-02 14:00N 26°08' W 080°04'0 0.3
2017-Dec-02 13:28N 26°08' W 080°05'0 0.0
2017-Dec-02 12:58N 26°08' W 080°05'0 0.0
2017-Dec-02 12:25N 26°08' W 080°05'0 0.0
2017-Dec-02 11:55N 26°08' W 080°05'0 0.1
2017-Dec-02 11:28N 26°08' W 080°05'0 0.0
2017-Dec-02 10:52N 26°08' W 080°05'0 0.0
2017-Dec-02 10:28N 26°08' W 080°05'0 0.0
2017-Dec-02 09:55N 26°08' W 080°05'0 0.0
2017-Dec-02 09:25N 26°08' W 080°05'0 0.0
2017-Dec-02 08:55N 26°08' W 080°05'0 0.0
2017-Dec-02 08:25N 26°08' W 080°05'0 0.0
2017-Dec-02 07:55N 26°08' W 080°05'0 0.0
2017-Dec-02 07:28N 26°08' W 080°05'  
Track history (hours):
 
Tides and Currents Weather Stations Pressure Air Temp Water Temp Dewpoint Dewpoint Depression Visibility Wind Speed Wind Dir Waves Ship Positions

American Freedom

Owner: Crowley Petroleum Services, Jacksonville, FL. More information available from US FCC via Universal Licensing System and Coast Guard Vessel Documentation Center.

Last reported at 2017-Dec-12 07:04 UTC. Time now 2017-Dec-16 12:57 UTC.
Position N 29°12' W 094°40'.

Length 183 m; draft 8.6 m.

Type: Tanker. MMSI: 369042000.

Date/timePositionNaut miles runAvg speedWind from/ knotsBaromVisibWave heightAir tempDewpointWater temp
2017-Dec-12 07:04N 29°12' W 094°40'0 0.1
2017-Dec-12 06:58N 29°12' W 094°40'0 0.0
2017-Dec-12 06:28N 29°12' W 094°40'0 0.0
2017-Dec-12 05:58N 29°12' W 094°40'0 0.0
2017-Dec-12 05:01N 29°12' W 094°40'0 0.0
2017-Dec-12 01:49N 29°12' W 094°40'0 0.0
2017-Dec-12 01:22N 29°12' W 094°40'0 0.0
2017-Dec-12 00:58N 29°12' W 094°40'0 0.0
2017-Dec-12 00:28N 29°12' W 094°40'0 0.0
2017-Dec-11 23:58N 29°12' W 094°40'0 0.0
2017-Dec-11 10:43N 29°12' W 094°40'64112.6
2017-Dec-09 07:58N 27°37' W 082°40'5 9.6
2017-Dec-09 07:28N 27°39' W 082°35'1 2.7
2017-Dec-09 07:00N 27°38' W 082°34'0 0.0
2017-Dec-09 06:30N 27°38' W 082°34'0 0.0
2017-Dec-09 06:00N 27°38' W 082°34'0 0.0
2017-Dec-08 14:56N 27°38' W 082°34'2 2.8
2017-Dec-08 14:16N 27°39' W 082°35'2 5.5
2017-Dec-08 13:56N 27°41' W 082°35'410.2
2017-Dec-08 13:30N 27°44' W 082°32'611.2
2017-Dec-08 13:00N 27°48' W 082°28'611.7
2017-Dec-08 12:30N 27°54' W 082°26'1 1.7
2017-Dec-08 11:58N 27°55' W 082°27'0 0.0
2017-Dec-08 11:28N 27°55' W 082°27'0 0.0
2017-Dec-08 10:58N 27°55' W 082°27'0 0.0
2017-Dec-08 10:28N 27°55' W 082°27'0 0.0
2017-Dec-08 09:58N 27°55' W 082°27'0 0.0
2017-Dec-08 09:28N 27°55' W 082°27'0 0.0
2017-Dec-08 08:58N 27°55' W 082°27'0 0.0
2017-Dec-08 08:28N 27°55' W 082°27'0 0.0
2017-Dec-08 07:58N 27°55' W 082°27'0 0.0
2017-Dec-08 07:28N 27°55' W 082°27'0 0.0
2017-Dec-08 06:58N 27°55' W 082°27'0 0.0
2017-Dec-08 06:28N 27°55' W 082°27'0 0.0
2017-Dec-08 05:58N 27°55' W 082°27'0 0.0
2017-Dec-08 05:28N 27°55' W 082°27'0 0.0
2017-Dec-08 04:58N 27°55' W 082°27'0 0.0
2017-Dec-08 04:28N 27°55' W 082°27'0 0.0
2017-Dec-08 03:58N 27°55' W 082°27'0 0.0
2017-Dec-08 03:28N 27°55' W 082°27'0 0.0
2017-Dec-08 02:58N 27°55' W 082°27'0 0.0
2017-Dec-08 02:28N 27°55' W 082°27'0 0.0
2017-Dec-08 01:58N 27°55' W 082°27'0 0.0
2017-Dec-08 01:28N 27°55' W 082°27'0 0.0
2017-Dec-08 00:58N 27°55' W 082°27'0 0.0
2017-Dec-08 00:28N 27°55' W 082°27'0 0.0
2017-Dec-07 23:58N 27°55' W 082°27'0 0.0
2017-Dec-07 23:28N 27°55' W 082°27'0 0.0
2017-Dec-07 22:58N 27°55' W 082°27'0 0.1
2017-Dec-07 22:31N 27°55' W 082°27'2 4.9
2017-Dec-07 22:01N 27°53' W 082°26'611.0
2017-Dec-07 21:30N 27°48' W 082°29'613.0
2017-Dec-07 21:00N 27°42' W 082°33'714.0
2017-Dec-07 20:30N 27°37' W 082°39'  
2017-Dec-03 07:45N 25°18' W 080°03'311.9
2017-Dec-03 07:30N 25°21' W 080°02'611.6
2017-Dec-03 07:00N 25°27' W 080°01'611.7
2017-Dec-03 06:30N 25°33' W 080°00'611.5
2017-Dec-03 06:00N 25°38' W 079°60'611.9
2017-Dec-03 05:30N 25°44' W 079°60'612.0
2017-Dec-03 05:00N 25°50' W 079°60'612.1
2017-Dec-03 04:30N 25°56' W 079°60'611.9
2017-Dec-03 04:00N 26°02' W 080°01'611.6
2017-Dec-03 03:30N 26°06' W 080°06'1 2.0
2017-Dec-03 03:00N 26°05' W 080°07'0 0.0
2017-Dec-03 02:24N 26°05' W 080°07'0 0.0
2017-Dec-03 01:54N 26°05' W 080°07'0 0.0
2017-Dec-03 01:24N 26°05' W 080°07'0 0.0
2017-Dec-03 00:54N 26°05' W 080°07'0 0.0
2017-Dec-03 00:27N 26°05' W 080°07'0 0.0
2017-Dec-02 23:57N 26°05' W 080°07'0 0.0
2017-Dec-02 23:27N 26°05' W 080°07'0 0.0
2017-Dec-02 22:57N 26°05' W 080°07'0 0.0
2017-Dec-02 22:27N 26°05' W 080°07'0 0.0
2017-Dec-02 22:00N 26°05' W 080°07'0 0.0
2017-Dec-02 21:30N 26°05' W 080°07'0 0.0
2017-Dec-02 21:00N 26°05' W 080°07'0 0.0
2017-Dec-02 20:30N 26°05' W 080°07'0 0.0
2017-Dec-02 19:57N 26°05' W 080°07'0 0.0
2017-Dec-02 19:30N 26°05' W 080°07'0 0.0
2017-Dec-02 19:00N 26°05' W 080°07'0 0.0
2017-Dec-02 18:30N 26°05' W 080°07'0 0.0
2017-Dec-02 18:00N 26°05' W 080°07'0 0.0
2017-Dec-02 17:30N 26°05' W 080°07'0 0.0
2017-Dec-02 17:00N 26°05' W 080°07'0 0.0
2017-Dec-02 16:21N 26°05' W 080°07'0 0.0
2017-Dec-02 16:00N 26°05' W 080°07'0 0.0
2017-Dec-02 15:30N 26°05' W 080°07'0 0.2
2017-Dec-02 15:01N 26°05' W 080°07'4 7.3
2017-Dec-02 14:30N 26°06' W 080°03'3 5.7
2017-Dec-02 14:00N 26°08' W 080°04'0 0.3
2017-Dec-02 13:28N 26°08' W 080°05'0 0.0
2017-Dec-02 12:58N 26°08' W 080°05'0 0.0
2017-Dec-02 12:25N 26°08' W 080°05'0 0.0
2017-Dec-02 11:55N 26°08' W 080°05'0 0.1
2017-Dec-02 11:28N 26°08' W 080°05'0 0.0
2017-Dec-02 10:52N 26°08' W 080°05'0 0.0
2017-Dec-02 10:28N 26°08' W 080°05'0 0.0
2017-Dec-02 09:55N 26°08' W 080°05'0 0.0
2017-Dec-02 09:25N 26°08' W 080°05'0 0.0
2017-Dec-02 08:55N 26°08' W 080°05'0 0.0
2017-Dec-02 08:25N 26°08' W 080°05'0 0.0
2017-Dec-02 07:55N 26°08' W 080°05'0 0.0
2017-Dec-02 07:28N 26°08' W 080°05'  

Dump ship's entire track history